Time;durP1;ratioP1;P1;durP2;ratioP2;P2;SDS_P1;SDS_P2;PMS_P1;PMS_P2;Temp;Humidity;BMP_temperature;BMP_pressure;BME280_temperature;BME280_humidity;BME280_pressure;Samples;Min_cycle;Max_cycle;Signal;HPM_P1;HPM_P2
2023/06/17 00:01:53;;;;;;;7.50;4.90;;;18.80;60.20;;;;;;20834315;28;20237;-59
2023/06/17 00:11:57;;;;;;;6.30;4.80;;;18.70;61.10;;;;;;20834836;28;20300;-65
2023/06/17 00:21:59;;;;;;;9.60;5.27;;;18.60;61.80;;;;;;20834148;28;20242;-60
2023/06/17 00:32:01;;;;;;;5.57;4.70;;;18.30;62.80;;;;;;20848582;28;20215;-60
2023/06/17 00:42:03;;;;;;;7.83;5.10;;;17.80;63.90;;;;;;20832456;28;20255;-65
2023/06/17 00:52:10;;;;;;;7.27;5.13;;;17.80;65.00;;;;;;20832029;28;20212;-65
2023/06/17 01:02:32;;;;;;;7.90;5.10;;;17.60;65.60;;;;;;20830956;28;20240;-63
2023/06/17 01:12:34;;;;;;;6.87;5.60;;;17.50;66.60;;;;;;20830277;28;20308;-66
2023/06/17 01:22:37;;;;;;;7.00;5.17;;;17.40;66.80;;;;;;20830184;28;20252;-58
2023/06/17 01:32:40;;;;;;;8.67;5.27;;;17.30;67.50;;;;;;20829685;28;20679;-61
2023/06/17 01:42:45;;;;;;;7.67;5.37;;;17.20;68.30;;;;;;20829350;28;20666;-60
2023/06/17 01:52:47;;;;;;;6.57;5.23;;;17.00;68.80;;;;;;20828674;28;20290;-61
2023/06/17 02:02:48;;;;;;;5.93;5.33;;;16.80;69.60;;;;;;20828227;28;20242;-61
2023/06/17 02:12:50;;;;;;;6.43;5.40;;;16.70;70.50;;;;;;20828042;28;20219;-59
2023/06/17 02:22:52;;;;;;;6.83;5.23;;;16.60;71.00;;;;;;20833079;28;20279;-59
2023/06/17 02:32:54;;;;;;;6.37;5.27;;;16.40;71.70;;;;;;20842524;28;20664;-61
2023/06/17 02:42:55;;;;;;;8.40;5.20;;;16.20;72.60;;;;;;20841591;28;20256;-62
2023/06/17 02:52:57;;;;;;;9.27;5.87;;;16.20;73.40;;;;;;20841201;28;20213;-63
2023/06/17 03:02:59;;;;;;;8.93;5.40;;;16.20;73.90;;;;;;20840338;28;20242;-63
2023/06/17 03:13:01;;;;;;;9.87;5.70;;;16.10;74.40;;;;;;20861943;28;20219;-63
2023/06/17 03:23:03;;;;;;;10.53;6.40;;;16.00;75.00;;;;;;20849139;28;20280;-64
2023/06/17 03:33:05;;;;;;;8.83;6.03;;;15.90;75.90;;;;;;20848853;28;20201;-64
2023/06/17 03:43:07;;;;;;;8.57;5.90;;;15.80;76.40;;;;;;20837054;28;20240;-63
2023/06/17 03:53:08;;;;;;;9.27;5.63;;;15.80;77.00;;;;;;20836291;28;20286;-59
2023/06/17 04:03:11;;;;;;;7.53;5.77;;;15.90;77.40;;;;;;20835518;28;20283;-60
2023/06/17 04:13:14;;;;;;;6.03;5.43;;;15.90;77.90;;;;;;20835065;28;20238;-59
2023/06/17 04:23:15;;;;;;;8.20;6.13;;;15.90;78.50;;;;;;20834034;28;20244;-59
2023/06/17 04:33:17;;;;;;;8.40;6.43;;;16.20;78.70;;;;;;20833369;28;20244;-62
2023/06/17 04:43:22;;;;;;;11.67;7.87;;;16.30;78.40;;;;;;20816758;28;20573;-62
2023/06/17 04:53:25;;;;;;;7.93;6.80;;;16.30;79.00;;;;;;20785154;28;20752;-64
2023/06/17 05:03:27;;;;;;;9.30;6.57;;;16.50;79.40;;;;;;20853824;28;20238;-65
2023/06/17 05:13:28;;;;;;;8.07;6.50;;;16.70;79.50;;;;;;20835462;28;20208;-67
2023/06/17 05:23:30;;;;;;;8.50;6.90;;;16.90;79.60;;;;;;20834481;28;20345;-62
2023/06/17 05:33:32;;;;;;;8.70;6.60;;;17.10;79.50;;;;;;20829908;28;20302;-62
2023/06/17 05:43:34;;;;;;;10.07;6.30;;;17.40;79.40;;;;;;20829222;28;20242;-64
2023/06/17 05:53:35;;;;;;;15.60;6.47;;;17.70;79.00;;;;;;20858246;28;20613;-62
2023/06/17 06:03:37;;;;;;;8.83;6.60;;;18.10;78.50;;;;;;20879897;28;20239;-64
2023/06/17 06:13:39;;;;;;;8.93;6.83;;;18.50;77.50;;;;;;20906827;28;20662;-67
2023/06/17 06:23:41;;;;;;;7.47;6.57;;;18.70;76.70;;;;;;20925233;28;20632;-64
2023/06/17 06:33:42;;;;;;;9.50;6.27;;;19.10;76.00;;;;;;20876932;28;20210;-66
2023/06/17 06:43:45;;;;;;;9.13;6.57;;;19.50;74.80;;;;;;20840674;28;20345;-62
2023/06/17 06:53:48;;;;;;;6.97;6.20;;;19.80;73.60;;;;;;20852314;28;20212;-63
2023/06/17 07:03:50;;;;;;;8.70;5.97;;;20.20;72.60;;;;;;20908867;28;20245;-64
2023/06/17 07:13:52;;;;;;;17.77;6.87;;;20.60;71.40;;;;;;20963979;28;20214;-64
2023/06/17 07:23:53;;;;;;;11.37;5.87;;;21.00;70.00;;;;;;20914744;28;20653;-63
2023/06/17 07:33:56;;;;;;;15.20;8.77;;;21.50;68.70;;;;;;20914352;28;20286;-65
2023/06/17 07:44:00;;;;;;;7.27;5.73;;;21.90;66.90;;;;;;20913321;28;20323;-60
2023/06/17 07:54:05;;;;;;;10.93;5.03;;;22.20;64.40;;;;;;20856463;28;20212;-63
2023/06/17 08:04:07;;;;;;;8.53;5.07;;;22.50;62.10;;;;;;20856752;28;20266;-63
2023/06/17 08:14:09;;;;;;;9.77;4.80;;;22.80;57.90;;;;;;20911122;28;20285;-63
2023/06/17 08:24:17;;;;;;;6.80;5.23;;;23.10;56.00;;;;;;20909098;28;20272;-65
2023/06/17 08:34:21;;;;;;;10.60;4.97;;;23.30;54.40;;;;;;20909365;28;20208;-65
2023/06/17 08:44:25;;;;;;;8.87;5.07;;;23.50;53.10;;;;;;20856485;28;20320;-65
2023/06/17 08:54:30;;;;;;;6.63;4.90;;;23.70;51.80;;;;;;20825584;28;20288;-64
2023/06/17 09:04:32;;;;;;;5.67;4.70;;;23.90;51.20;;;;;;20877905;28;20270;-59
2023/06/17 09:14:35;;;;;;;9.03;4.67;;;24.10;49.70;;;;;;20989682;28;20214;-61
2023/06/17 09:24:42;;;;;;;6.73;4.53;;;24.30;47.40;;;;;;20988933;28;20330;-63
2023/06/17 09:34:48;;;;;;;8.53;6.30;;;24.50;45.80;;;;;;20939673;28;20211;-61
2023/06/17 09:44:50;;;;;;;5.67;4.77;;;24.70;45.90;;;;;;20868781;28;20655;-61
2023/06/17 09:54:53;;;;;;;6.47;5.33;;;25.00;45.00;;;;;;20834168;28;20212;-65
2023/06/17 10:04:55;;;;;;;6.63;5.70;;;25.30;44.90;;;;;;20871399;28;20231;-64
2023/06/17 10:14:59;;;;;;;7.70;5.63;;;25.30;45.10;;;;;;20987111;28;20670;-59
2023/06/17 10:25:01;;;;;;;5.50;5.00;;;25.40;44.60;;;;;;20986377;28;20243;-61
2023/06/17 10:35:06;;;;;;;8.33;4.73;;;25.50;43.30;;;;;;20934786;28;20220;-61
2023/06/17 10:45:13;;;;;;;6.73;5.07;;;25.70;42.60;;;;;;20842297;28;20248;-60
2023/06/17 10:55:15;;;;;;;5.13;4.63;;;25.80;42.10;;;;;;20851778;28;20299;-61
2023/06/17 11:05:17;;;;;;;5.43;4.37;;;25.70;41.40;;;;;;20894943;28;20231;-63
2023/06/17 11:15:23;;;;;;;10.47;4.90;;;25.90;41.10;;;;;;21004417;28;20207;-61
2023/06/17 11:25:25;;;;;;;5.00;4.50;;;26.00;41.50;;;;;;20996741;28;20279;-60
2023/06/17 11:35:47;;;;;;;5.00;4.27;;;26.20;41.40;;;;;;20903066;28;20243;-62
2023/06/17 11:45:49;;;;;;;8.17;4.80;;;26.20;40.70;;;;;;20919486;28;20275;-61
2023/06/17 11:55:51;;;;;;;7.43;4.63;;;26.60;40.30;;;;;;20868031;28;20208;-61
2023/06/17 12:05:53;;;;;;;6.13;5.10;;;26.80;39.80;;;;;;20900102;28;20238;-62
2023/06/17 12:15:55;;;;;;;8.23;4.97;;;26.60;39.90;;;;;;20999948;28;20208;-61
2023/06/17 12:25:57;;;;;;;8.03;4.73;;;27.20;38.30;;;;;;20998993;28;20231;-59
2023/06/17 12:35:59;;;;;;;6.17;4.50;;;27.40;38.40;;;;;;20910456;28;20211;-66
2023/06/17 12:46:01;;;;;;;5.53;4.50;;;27.20;38.00;;;;;;20838287;28;20747;-67
2023/06/17 12:56:03;;;;;;;6.65;4.60;;;27.40;36.50;;;;;;20831203;28;20215;-59
2023/06/17 13:06:05;;;;;;;8.02;4.95;;;27.40;35.10;;;;;;20897495;28;20424;-60
2023/06/17 13:16:07;;;;;;;5.13;4.53;;;27.40;35.60;;;;;;20994896;28;20257;-68
2023/06/17 13:26:10;;;;;;;5.50;4.40;;;27.50;35.30;;;;;;20995840;28;20698;-67
2023/06/17 13:36:12;;;;;;;8.40;4.38;;;27.50;34.40;;;;;;20855069;28;20663;-66
2023/06/17 13:46:14;;;;;;;4.80;4.30;;;27.80;34.10;;;;;;20838784;28;20234;-67
2023/06/17 13:56:17;;;;;;;8.75;5.30;;;27.90;33.60;;;;;;20826709;28;20208;-68
2023/06/17 14:06:19;;;;;;;7.43;5.18;;;28.10;33.50;;;;;;20857097;28;20242;-69
2023/06/17 14:16:21;;;;;;;9.82;4.72;;;28.00;34.10;;;;;;20857961;28;20240;-71
2023/06/17 14:26:23;;;;;;;6.05;5.05;;;28.20;33.90;;;;;;20843259;28;20233;-70
2023/06/17 14:36:26;;;;;;;5.35;4.85;;;29.40;33.40;;;;;;20902908;28;20290;-61
2023/06/17 14:46:27;;;;;;;5.53;4.80;;;29.80;33.70;;;;;;20904352;28;20695;-60
2023/06/17 14:56:32;;;;;;;6.07;5.25;;;29.60;33.70;;;;;;20841413;28;20266;-63
2023/06/17 15:06:34;;;;;;;7.07;5.40;;;29.50;34.50;;;;;;20916053;28;20318;-60
2023/06/17 15:16:36;;;;;;;9.90;5.32;;;30.80;33.30;;;;;;21005470;28;20263;-63
2023/06/17 15:26:38;;;;;;;6.07;5.13;;;31.30;33.20;;;;;;21003845;28;20242;-69
2023/06/17 15:36:40;;;;;;;9.68;6.05;;;30.70;33.40;;;;;;20939576;28;20677;-70
2023/06/17 15:46:42;;;;;;;6.25;5.65;;;29.40;34.80;;;;;;20919912;28;20231;-64
2023/06/17 15:56:47;;;;;;;5.63;5.07;;;30.80;33.80;;;;;;20918933;28;20219;-65
2023/06/17 16:06:49;;;;;;;6.00;4.47;;;33.30;31.50;;;;;;20957959;28;20317;-68
2023/06/17 16:16:54;;;;;;;5.00;4.50;;;37.30;28.70;;;;;;20875177;28;20236;-66
2023/06/17 16:26:56;;;;;;;5.53;4.38;;;38.40;27.30;;;;;;20833967;28;20338;-70
2023/06/17 16:36:58;;;;;;;8.45;4.57;;;37.80;26.60;;;;;;20899040;28;20215;-61
2023/06/17 16:46:59;;;;;;;14.00;4.93;;;33.80;28.50;;;;;;20914208;28;20571;-62
2023/06/17 16:57:02;;;;;;;10.25;4.93;;;32.70;29.30;;;;;;20914338;28;20207;-71
2023/06/17 17:07:04;;;;;;;7.60;4.57;;;33.10;29.30;;;;;;20955353;28;20581;-61
2023/06/17 17:17:08;;;;;;;4.72;4.22;;;33.00;29.10;;;;;;20995373;28;20245;-61
2023/06/17 17:27:10;;;;;;;7.75;3.90;;;35.80;27.30;;;;;;20994903;28;20321;-68
2023/06/17 17:37:12;;;;;;;4.50;4.10;;;35.90;27.00;;;;;;20925871;28;20203;-67
2023/06/17 17:47:13;;;;;;;4.10;3.70;;;37.10;26.30;;;;;;20912615;28;20234;-62
2023/06/17 17:57:15;;;;;;;7.30;4.05;;;38.60;25.40;;;;;;20927668;28;20214;-71
2023/06/17 18:07:17;;;;;;;6.30;4.13;;;38.40;25.40;;;;;;20972228;28;20233;-62
2023/06/17 18:17:19;;;;;;;6.47;4.55;;;34.20;27.50;;;;;;21009788;28;20235;-60
2023/06/17 18:27:21;;;;;;;9.73;5.00;;;31.10;29.90;;;;;;21008493;28;20716;-60
2023/06/17 18:37:36;;;;;;;5.07;4.50;;;29.60;31.40;;;;;;20936254;28;20291;-62
2023/06/17 18:47:38;;;;;;;11.60;6.00;;;28.60;32.80;;;;;;20924678;28;20235;-60
2023/06/17 18:57:40;;;;;;;7.90;5.27;;;27.80;34.30;;;;;;20880329;28;20205;-60
2023/06/17 19:07:44;;;;;;;8.90;5.10;;;27.20;35.60;;;;;;20934027;28;20556;-61
2023/06/17 19:17:45;;;;;;;6.83;5.90;;;26.70;36.70;;;;;;21004801;28;20596;-60
2023/06/17 19:27:47;;;;;;;15.37;5.77;;;26.20;39.30;;;;;;21003921;28;20278;-60
2023/06/17 19:37:49;;;;;;;9.47;5.90;;;25.60;41.20;;;;;;20929637;28;20294;-61
2023/06/17 19:47:51;;;;;;;8.37;5.87;;;25.10;43.10;;;;;;20919753;28;20603;-61
2023/06/17 19:57:53;;;;;;;8.40;6.60;;;24.50;44.00;;;;;;20894604;28;20200;-61
2023/06/17 20:07:55;;;;;;;6.73;5.63;;;24.10;44.80;;;;;;20945711;28;20682;-61
2023/06/17 20:17:57;;;;;;;10.57;6.97;;;23.80;45.50;;;;;;20999901;28;20266;-61
2023/06/17 20:27:58;;;;;;;11.57;6.57;;;23.40;45.90;;;;;;20999068;28;20292;-65
2023/06/17 20:38:00;;;;;;;12.43;6.60;;;23.20;46.50;;;;;;20923387;28;20234;-61
2023/06/17 20:48:02;;;;;;;8.60;6.60;;;22.90;47.30;;;;;;20917227;28;20245;-63
2023/06/17 20:58:05;;;;;;;10.00;6.77;;;22.50;48.10;;;;;;20912851;28;20212;-61
2023/06/17 21:08:06;;;;;;;9.63;6.60;;;22.10;49.20;;;;;;20964185;28;20233;-61
2023/06/17 21:18:08;;;;;;;10.97;6.47;;;21.70;50.10;;;;;;20996061;28;20239;-69
2023/06/17 21:28:10;;;;;;;10.80;6.20;;;21.50;50.80;;;;;;20995127;28;20334;-65
2023/06/17 21:38:11;;;;;;;9.13;6.60;;;21.30;51.40;;;;;;20934000;28;20290;-70
2023/06/17 21:48:13;;;;;;;8.67;6.60;;;21.00;52.30;;;;;;20912416;28;20234;-62
2023/06/17 21:58:15;;;;;;;9.80;7.00;;;20.70;53.10;;;;;;20911602;28;20213;-61
2023/06/17 22:08:17;;;;;;;11.97;7.03;;;20.40;53.90;;;;;;20962160;28;20388;-60
2023/06/17 22:18:25;;;;;;;10.40;7.23;;;20.20;54.60;;;;;;20994043;28;20261;-60
2023/06/17 22:28:27;;;;;;;9.27;6.80;;;20.00;55.10;;;;;;20992149;28;20247;-60
2023/06/17 22:38:29;;;;;;;8.97;6.83;;;19.60;55.60;;;;;;20917017;28;20214;-60
2023/06/17 22:48:31;;;;;;;9.47;7.30;;;19.50;56.30;;;;;;20911297;28;20603;-62
2023/06/17 22:58:33;;;;;;;11.20;7.17;;;19.40;56.80;;;;;;20864608;28;20292;-61
2023/06/17 23:08:34;;;;;;;8.77;7.20;;;19.30;57.30;;;;;;20949322;28;20229;-62
2023/06/17 23:18:36;;;;;;;11.53;7.70;;;19.20;57.70;;;;;;21005259;28;20268;-61
2023/06/17 23:28:39;;;;;;;8.03;6.83;;;19.00;58.20;;;;;;21004373;28;20235;-60
2023/06/17 23:38:41;;;;;;;10.10;7.77;;;18.80;58.60;;;;;;20923046;28;20648;-61
2023/06/17 23:48:43;;;;;;;9.90;7.60;;;18.70;58.90;;;;;;20919986;28;20277;-60
2023/06/17 23:58:45;;;;;;;7.30;6.50;;;18.70;59.20;;;;;;20913177;28;20202;-61
